createdAt,value
2022-12-08T17:57:51.999Z,13.82
2022-12-08T18:00:19.482Z,13.25
2022-12-08T18:02:46.660Z,13.52
2022-12-08T18:05:13.731Z,15.07
2022-12-08T18:07:40.748Z,47.38
2022-12-08T18:10:08.480Z,47.47
2022-12-08T18:12:35.588Z,31.08
2022-12-08T18:15:06.632Z,18.52
2022-12-08T18:17:33.432Z,16.77
2022-12-08T18:20:00.349Z,17.00
2022-12-08T18:22:27.335Z,14.18
2022-12-08T18:24:54.326Z,13.63
2022-12-08T18:27:21.138Z,14.57
2022-12-08T18:29:47.939Z,15.90
2022-12-08T18:32:16.271Z,14.90
2022-12-08T18:34:43.241Z,15.52
2022-12-08T18:37:09.972Z,14.98
2022-12-08T18:39:36.848Z,15.23
2022-12-08T18:42:04.101Z,15.05
2022-12-08T18:44:30.936Z,12.45
2022-12-08T18:46:57.677Z,12.02
2022-12-08T18:49:25.996Z,11.18
2022-12-08T18:51:52.907Z,10.85
2022-12-08T18:54:22.073Z,18.02
2022-12-08T18:56:54.555Z,25.13
2022-12-08T19:02:12.730Z,19.00
2022-12-08T19:04:41.610Z,17.60
2022-12-08T19:07:08.554Z,19.75
2022-12-08T19:09:39.263Z,19.00
2022-12-08T19:12:06.835Z,18.10
2022-12-08T19:14:34.757Z,16.30
2022-12-08T19:17:02.557Z,12.25
2022-12-08T19:19:29.355Z,12.13
2022-12-08T19:21:57.728Z,12.70
2022-12-08T19:24:24.814Z,12.93
2022-12-08T19:26:52.181Z,17.20
2022-12-08T19:32:10.747Z,12.77
2022-12-08T19:34:37.609Z,10.90
2022-12-08T19:37:05.979Z,11.47
2022-12-08T19:39:32.753Z,11.93
2022-12-08T19:41:59.671Z,10.47
2022-12-08T19:44:28.970Z,15.37
2022-12-08T19:46:55.961Z,13.77
2022-12-08T19:49:22.949Z,12.33
2022-12-08T19:51:49.764Z,13.77
2022-12-08T19:54:18.012Z,13.63
2022-12-08T19:56:44.879Z,13.38
2022-12-08T19:59:11.882Z,13.75
2022-12-08T20:01:39.086Z,13.45
2022-12-08T20:04:06.110Z,17.15
2022-12-08T20:06:32.938Z,15.10
2022-12-08T20:09:00.195Z,15.33
2022-12-08T20:11:28.246Z,15.63
2022-12-08T20:13:55.249Z,14.25
2022-12-08T20:16:22.268Z,15.80
2022-12-08T20:18:49.803Z,23.63
2022-12-08T20:21:17.275Z,17.92
2022-12-08T20:23:44.207Z,16.52
2022-12-08T20:26:13.376Z,15.75
2022-12-08T20:28:42.028Z,17.25
2022-12-08T20:31:17.131Z,17.27
2022-12-08T20:33:44.215Z,16.92
2022-12-08T20:36:16.066Z,17.15
2022-12-08T20:38:43.558Z,17.15
2022-12-08T20:41:11.435Z,24.42
2022-12-08T20:43:38.635Z,17.20
2022-12-08T20:46:10.216Z,16.60
2022-12-08T20:48:37.352Z,17.00
2022-12-08T20:51:05.165Z,18.30
2022-12-08T20:53:32.483Z,20.88
2022-12-08T20:55:59.596Z,21.77
2022-12-08T20:58:26.628Z,19.93
2022-12-08T21:00:53.479Z,20.83
2022-12-08T21:03:22.237Z,19.77
2022-12-08T21:05:50.700Z,19.33
2022-12-08T21:08:18.506Z,18.65
2022-12-08T21:10:45.905Z,17.43
2022-12-08T21:13:12.825Z,19.20
2022-12-08T21:15:45.952Z,18.83
2022-12-08T21:18:13.257Z,16.97
2022-12-08T21:20:42.334Z,16.67
2022-12-08T21:23:09.789Z,18.23
2022-12-08T21:25:41.278Z,19.10
2022-12-08T21:28:08.727Z,19.35
2022-12-08T21:30:35.699Z,18.55
2022-12-08T21:33:02.781Z,16.45
2022-12-08T21:35:31.223Z,16.90
2022-12-08T21:37:59.566Z,16.77
2022-12-08T21:40:26.929Z,15.33
2022-12-08T21:42:53.862Z,15.33
2022-12-08T21:45:21.927Z,15.90
2022-12-08T21:47:50.206Z,19.03
2022-12-08T21:50:18.530Z,15.97
2022-12-08T21:52:48.295Z,19.33
2022-12-08T21:55:17.841Z,16.87
2022-12-08T21:57:44.790Z,19.70
2022-12-08T22:00:15.857Z,18.87
2022-12-08T22:03:13.476Z,20.13
2022-12-08T22:06:06.083Z,17.50
2022-12-08T22:08:33.546Z,16.40
2022-12-08T22:11:02.885Z,17.10
2022-12-08T22:13:30.023Z,17.77
2022-12-08T22:15:57.870Z,19.23
2022-12-08T22:18:25.127Z,16.63
2022-12-08T22:20:52.377Z,19.47
2022-12-08T22:23:20.242Z,21.97
2022-12-08T22:25:56.468Z,20.23
2022-12-08T22:28:25.329Z,19.23
2022-12-08T22:30:52.970Z,19.43
2022-12-08T22:33:20.167Z,21.37
2022-12-08T22:35:56.036Z,22.97
2022-12-08T22:38:22.921Z,20.53
2022-12-08T22:40:49.715Z,20.27
2022-12-08T22:43:17.316Z,19.50
2022-12-08T22:45:45.502Z,19.70
2022-12-08T22:48:12.955Z,20.10
2022-12-08T22:50:40.120Z,16.10
2022-12-08T22:53:07.476Z,16.37
2022-12-08T22:55:34.483Z,18.50
2022-12-08T22:58:01.196Z,18.37
2022-12-08T23:00:28.143Z,17.53
2022-12-08T23:02:56.273Z,20.50
2022-12-08T23:05:23.564Z,19.10
2022-12-08T23:07:50.988Z,19.77
2022-12-08T23:10:18.310Z,17.40
2022-12-08T23:12:45.450Z,16.43
2022-12-08T23:15:12.425Z,15.40
2022-12-08T23:17:39.360Z,16.10
2022-12-08T23:20:09.509Z,17.43
2022-12-08T23:22:36.937Z,14.70
2022-12-08T23:25:04.620Z,15.60
2022-12-08T23:27:32.038Z,19.47
2022-12-08T23:29:59.093Z,13.80
2022-12-08T23:32:26.344Z,18.80
2022-12-08T23:34:53.277Z,15.30
2022-12-08T23:37:22.274Z,13.00
2022-12-08T23:39:49.300Z,10.83
2022-12-08T23:42:16.559Z,11.23
2022-12-08T23:44:43.821Z,12.33
2022-12-08T23:47:10.948Z,13.20
2022-12-08T23:49:37.961Z,12.47
2022-12-08T23:52:05.338Z,14.30
2022-12-08T23:54:33.856Z,15.33
2022-12-08T23:57:01.047Z,15.60
2022-12-08T23:59:27.919Z,12.10
